Time;durP1;ratioP1;P1;durP2;ratioP2;P2;SDS_P1;SDS_P2;PMS_P1;PMS_P2;Temp;Humidity;BMP_temperature;BMP_pressure;BME280_temperature;BME280_humidity;BME280_pressure;Samples;Min_cycle;Max_cycle;Signal;HPM_P1;HPM_P2
2022/07/01 01:25:04;;;;;;;31.98;23.50;;;;;;;12.94;100.00;101462.19;4912547;29;20588;-84
2022/07/01 01:27:42;;;;;;;30.40;22.65;;;;;;;12.89;100.00;101459.06;4896827;29;20047;-84
2022/07/01 01:30:11;;;;;;;31.45;23.45;;;;;;;12.90;100.00;101456.31;4897895;29;20046;-84
2022/07/01 01:33:08;;;;;;;31.55;23.83;;;;;;;12.89;100.00;101465.19;4915274;29;20028;-84
2022/07/01 01:36:32;;;;;;;;;;;;;;;;;;;;;
2022/07/01 01:39:51;;;;;;;;;;;;;;;;;;;;;
2022/07/01 01:42:12;;;;;;;36.65;24.30;;;;;;;12.98;100.00;101467.13;4845986;29;20050;-84
2022/07/01 01:45:10;;;;;;;34.97;24.45;;;;;;;12.97;100.00;101457.53;4841121;29;20037;-84
2022/07/01 01:47:47;;;;;;;36.00;23.95;;;;;;;12.95;100.00;101448.03;4827002;29;20495;-84
2022/07/01 01:50:35;;;;;;;33.15;24.42;;;;;;;12.96;100.00;101447.91;4845824;29;20045;-83
2022/07/01 01:53:01;;;;;;;34.92;23.95;;;;;;;12.97;100.00;101457.53;4874900;29;20421;-83
2022/07/01 01:55:32;;;;;;;32.42;25.55;;;;;;;12.95;100.00;101459.44;4898303;29;20043;-84
2022/07/01 01:58:02;;;;;;;37.20;24.80;;;;;;;12.99;100.00;101450.34;4895089;29;20104;-84
2022/07/01 02:00:42;;;;;;;34.55;24.30;;;;;;;13.03;100.00;101445.66;4892785;29;20074;-84
2022/07/01 02:03:08;;;;;;;32.83;23.98;;;;;;;13.01;100.00;101452.88;4914125;29;20044;-84
2022/07/01 02:05:47;;;;;;;32.55;23.85;;;;;;;12.98;100.00;101464.50;4898009;29;20031;-84
2022/07/01 02:08:22;;;;;;;32.55;24.20;;;;;;;12.99;100.00;101463.53;4900718;29;20040;-83
2022/07/01 02:11:14;;;;;;;32.22;24.90;;;;;;;13.02;100.00;101465.94;4899924;29;20440;-83
2022/07/01 02:13:44;;;;;;;34.03;25.08;;;;;;;13.00;100.00;101473.16;4899216;29;20461;-83
2022/07/01 02:16:27;;;;;;;;;;;;;;;;;;;;;
2022/07/01 02:18:54;;;;;;;34.65;24.65;;;;;;;12.93;100.00;101487.78;4902611;29;20232;-83
2022/07/01 02:21:23;;;;;;;34.78;25.25;;;;;;;12.89;100.00;101486.31;4914725;29;20044;-84
2022/07/01 02:23:48;;;;;;;32.40;25.40;;;;;;;12.90;100.00;101490.63;4893104;29;20369;-83
2022/07/01 02:26:14;;;;;;;35.92;25.77;;;;;;;12.90;100.00;101488.00;4895471;29;20040;-84
2022/07/01 02:28:57;;;;;;;32.60;25.55;;;;;;;12.92;100.00;101503.72;4895167;29;20036;-84
2022/07/01 02:31:58;;;;;;;;;;;;;;;;;;;;;
2022/07/01 02:34:24;;;;;;;32.72;25.95;;;;;;;12.93;100.00;101474.56;4895687;29;20364;-83
2022/07/01 02:36:55;;;;;;;39.10;26.27;;;;;;;12.96;100.00;101449.72;4894646;29;20167;-84
2022/07/01 02:39:26;;;;;;;35.47;27.08;;;;;;;12.91;100.00;101442.13;4878137;29;20100;-84
2022/07/01 02:45:47;;;;;;;31.83;25.08;;;;;;;12.93;100.00;101466.63;4893882;29;20039;-83
2022/07/01 02:48:33;;;;;;;36.58;26.00;;;;;;;12.87;100.00;101472.38;4826340;29;20041;-84
2022/07/01 02:53:45;;;;;;;35.33;25.67;;;;;;;12.90;100.00;101497.72;4874756;29;20096;-83
2022/07/01 02:56:13;;;;;;;36.40;26.38;;;;;;;12.84;100.00;101489.28;4891562;29;20438;-84
2022/07/01 02:58:40;;;;;;;36.45;26.65;;;;;;;12.93;100.00;101495.69;4879449;29;20055;-84
2022/07/01 03:01:05;;;;;;;35.58;26.13;;;;;;;12.90;100.00;101487.16;4878933;29;20119;-83
2022/07/01 03:03:31;;;;;;;41.45;28.27;;;;;;;12.90;100.00;101488.00;4887428;29;20041;-83
2022/07/01 03:05:57;;;;;;;39.63;28.85;;;;;;;12.90;100.00;101480.06;4881049;29;20040;-84
2022/07/01 03:08:23;;;;;;;42.33;29.60;;;;;;;12.95;100.00;101496.44;4878642;29;20238;-83
2022/07/01 03:10:48;;;;;;;43.22;29.70;;;;;;;12.86;100.00;101479.47;4889921;29;20032;-83
2022/07/01 03:13:19;;;;;;;40.47;29.88;;;;;;;12.86;100.00;101486.53;4867624;29;20040;-83
2022/07/01 03:15:44;;;;;;;41.13;29.55;;;;;;;12.85;100.00;101490.13;4900860;29;20032;-84
2022/07/01 03:18:12;;;;;;;45.05;29.88;;;;;;;12.84;100.00;101505.16;4896096;29;20036;-83
2022/07/01 03:20:41;;;;;;;43.10;29.80;;;;;;;12.83;100.00;101502.63;4877432;29;20041;-83
2022/07/01 03:23:07;;;;;;;40.33;28.75;;;;;;;12.83;100.00;101486.78;4881819;29;20107;-83
2022/07/01 03:25:42;;;;;;;40.78;30.13;;;;;;;12.83;100.00;101476.19;4858862;29;20033;-83
2022/07/01 03:28:08;;;;;;;38.70;29.30;;;;;;;12.89;100.00;101491.59;4897292;29;20064;-83
2022/07/01 03:30:37;;;;;;;42.10;30.58;;;;;;;12.88;100.00;101497.84;4876899;29;20036;-83
2022/07/01 03:33:34;;;;;;;39.03;30.98;;;;;;;12.90;100.00;101510.94;4884184;29;20431;-84
2022/07/01 03:36:09;;;;;;;44.67;31.02;;;;;;;12.82;100.00;101514.97;4877597;29;20033;-84
2022/07/01 03:38:49;;;;;;;43.08;30.52;;;;;;;12.82;100.00;101527.34;4879241;29;20032;-84
2022/07/01 03:41:22;;;;;;;42.03;32.40;;;;;;;12.76;100.00;101533.88;4893229;29;20494;-84
2022/07/01 03:43:48;;;;;;;;;;;;;;;12.88;100.00;101536.63;4893220;29;20123;-83
2022/07/01 03:46:31;;;;;;;44.05;33.13;;;;;;;12.78;100.00;101525.84;4875921;29;19919;-83
2022/07/01 03:49:07;;;;;;;41.60;33.00;;;;;;;12.75;100.00;101536.63;4864705;29;20476;-83
2022/07/01 03:51:33;;;;;;;43.30;33.40;;;;;;;12.74;100.00;101540.22;4881514;29;20120;-83
2022/07/01 03:57:29;;;;;;;46.78;33.83;;;;;;;12.75;100.00;101557.75;4894873;29;20052;-83
2022/07/01 04:00:42;;;;;;;50.05;36.30;;;;;;;12.66;100.00;101553.13;4876684;29;20036;-84
2022/07/01 04:03:41;;;;;;;47.57;37.50;;;;;;;12.63;100.00;101559.47;4884437;29;20417;-84
2022/07/01 04:06:33;;;;;;;50.03;38.42;;;;;;;12.60;100.00;101564.13;4870065;29;20045;-83
2022/07/01 04:09:02;;;;;;;52.67;39.42;;;;;;;12.60;100.00;101559.69;4877344;29;20024;-83
2022/07/01 04:11:31;;;;;;;53.47;40.63;;;;;;;12.61;100.00;101566.66;4897686;29;20113;-84
2022/07/01 04:13:57;;;;;;;57.40;40.95;;;;;;;12.65;100.00;101562.00;4882515;29;20127;-83
2022/07/01 04:17:05;;;;;;;;;;;;;;;;;;;;;
2022/07/01 04:19:45;;;;;;;;;;;;;;;;;;;;;
2022/07/01 04:22:38;;;;;;;42.20;32.70;;;;;;;12.61;100.00;101557.91;4908488;29;20054;-83
2022/07/01 04:25:07;;;;;;;40.97;31.65;;;;;;;12.62;100.00;101557.78;4906377;29;20136;-83
2022/07/01 04:27:36;;;;;;;39.42;31.05;;;;;;;12.65;100.00;101554.09;4876944;29;20045;-84
2022/07/01 04:30:07;;;;;;;39.28;30.05;;;;;;;12.67;100.00;101557.47;4894886;29;20029;-84
2022/07/01 04:32:44;;;;;;;36.40;28.52;;;;;;;12.70;100.00;101555.44;4874011;29;20028;-84
2022/07/01 04:35:14;;;;;;;37.47;29.10;;;;;;;12.73;100.00;101564.94;4897224;29;20420;-83
2022/07/01 04:37:41;;;;;;;36.53;27.85;;;;;;;12.74;100.00;101561.34;4895407;29;20047;-83
2022/07/01 04:40:07;;;;;;;35.40;26.38;;;;;;;12.76;100.00;101572.66;4899279;29;20413;-84
2022/07/01 04:42:35;;;;;;;34.60;24.67;;;;;;;12.71;100.00;101566.84;4887179;29;20040;-84
2022/07/01 04:45:01;;;;;;;29.90;22.55;;;;;;;12.73;100.00;101570.22;4885381;29;20040;-84
2022/07/01 04:47:32;;;;;;;30.02;22.83;;;;;;;12.76;100.00;101572.66;4916294;29;20516;-84
2022/07/01 04:49:58;;;;;;;30.30;22.67;;;;;;;12.77;100.00;101566.41;4916298;29;20036;-84
2022/07/01 04:52:24;;;;;;;29.50;22.77;;;;;;;12.84;100.00;101567.69;4880106;29;20550;-84
2022/07/01 04:54:53;;;;;;;27.70;21.95;;;;;;;12.79;100.00;101569.78;4878262;29;20049;-84
2022/07/01 04:57:18;;;;;;;27.95;21.35;;;;;;;12.81;100.00;101565.25;4875752;29;20493;-84
2022/07/01 04:59:50;;;;;;;32.28;21.35;;;;;;;12.77;100.00;101559.34;4879209;29;20044;-84
2022/07/01 05:02:16;;;;;;;23.67;19.63;;;;;;;12.80;100.00;101564.38;4896958;29;20068;-84
2022/07/01 05:04:41;;;;;;;30.55;20.20;;;;;;;12.80;100.00;101569.66;4882297;29;20036;-84
2022/07/01 05:09:58;;;;;;;24.70;18.45;;;;;;;12.86;100.00;101579.81;4896734;29;20524;-85
2022/07/01 05:12:34;;;;;;;22.67;18.27;;;;;;;12.95;100.00;101586.22;4896915;29;20059;-85
2022/07/01 05:15:03;;;;;;;25.83;18.55;;;;;;;12.94;100.00;101573.97;4901814;29;20032;-84
2022/07/01 05:23:25;;;;;;;24.20;17.52;;;;;;;13.06;100.00;101582.81;4905293;29;20549;-84
2022/07/01 05:25:51;;;;;;;23.98;17.75;;;;;;;13.01;100.00;101575.22;4897715;29;20073;-84
2022/07/01 05:28:17;;;;;;;24.73;17.33;;;;;;;13.00;100.00;101589.38;4898884;29;20102;-84
2022/07/01 05:30:45;;;;;;;22.55;17.38;;;;;;;13.04;100.00;101590.00;4915354;29;20040;-84
2022/07/01 05:33:14;;;;;;;21.38;16.88;;;;;;;12.97;100.00;101583.47;4897952;29;20032;-84
2022/07/01 05:35:39;;;;;;;23.13;18.23;;;;;;;13.01;100.00;101584.94;4918140;29;20374;-84
2022/07/01 05:38:06;;;;;;;22.75;18.00;;;;;;;13.05;100.00;101587.25;4895695;29;20036;-84
2022/07/01 05:40:31;;;;;;;22.45;17.80;;;;;;;13.14;100.00;101586.56;4896007;29;20047;-84
2022/07/01 05:42:57;;;;;;;20.55;18.02;;;;;;;13.15;100.00;101587.41;4913672;29;20040;-84
2022/07/01 05:45:23;;;;;;;21.80;18.27;;;;;;;13.10;100.00;101579.84;4921504;29;20062;-84
2022/07/01 05:48:00;;;;;;;20.35;16.90;;;;;;;13.17;100.00;101590.81;4906214;29;20399;-84
2022/07/01 05:50:56;;;;;;;20.42;17.10;;;;;;;13.15;100.00;101584.78;4929034;29;20039;-84
2022/07/01 05:53:24;;;;;;;22.75;17.63;;;;;;;13.16;100.00;101584.66;4929525;29;20071;-84
2022/07/01 05:55:53;;;;;;;21.00;16.90;;;;;;;13.21;100.00;101599.38;4909294;29;20123;-84
2022/07/01 05:58:21;;;;;;;20.80;18.15;;;;;;;13.34;100.00;101597.53;4913547;29;20668;-84
2022/07/01 06:01:07;;;;;;;23.45;18.83;;;;;;;13.45;100.00;101589.66;4911856;29;20055;-84
2022/07/01 06:03:51;;;;;;;24.13;18.05;;;;;;;13.41;100.00;101598.75;4913430;29;20036;-84
2022/07/01 06:06:19;;;;;;;21.23;17.17;;;;;;;13.39;100.00;101576.88;4893231;29;20044;-84
2022/07/01 06:08:48;;;;;;;22.65;17.90;;;;;;;13.45;100.00;101579.91;4913607;29;20040;-84
2022/07/01 06:11:14;;;;;;;24.95;17.40;;;;;;;13.45;100.00;101581.72;4913363;29;20429;-85
2022/07/01 06:13:40;;;;;;;20.13;17.27;;;;;;;13.41;100.00;101582.91;4913784;29;20020;-85
2022/07/01 06:16:23;;;;;;;20.20;16.92;;;;;;;13.51;100.00;101594.47;4914153;29;20481;-84
2022/07/01 06:18:52;;;;;;;19.25;16.35;;;;;;;13.53;100.00;101595.22;4914114;29;20118;-84
2022/07/01 06:21:17;;;;;;;19.42;15.65;;;;;;;13.55;99.54;101600.38;4903996;29;20036;-84
2022/07/01 06:23:45;;;;;;;22.75;16.27;;;;;;;13.62;100.00;101597.19;4908102;29;20055;-85
2022/07/01 06:26:14;;;;;;;19.55;14.65;;;;;;;13.54;97.78;101596.88;4904809;29;20068;-85
2022/07/01 06:28:41;;;;;;;20.40;14.93;;;;;;;13.51;98.59;101593.63;4887709;29;20222;-84
2022/07/01 06:31:09;;;;;;;19.52;14.93;;;;;;;13.48;100.00;101594.72;4888645;29;20120;-85
2022/07/01 06:33:38;;;;;;;17.55;14.30;;;;;;;13.47;98.84;101588.56;4881292;29;20036;-85
2022/07/01 06:36:04;;;;;;;19.20;14.15;;;;;;;13.52;99.00;101585.59;4910512;29;20028;-85
2022/07/01 06:38:33;;;;;;;20.00;15.30;;;;;;;13.59;99.57;101586.81;4906786;29;20047;-84
2022/07/01 06:43:43;;;;;;;17.45;14.18;;;;;;;13.75;99.31;101592.66;4891971;29;20500;-84
2022/07/01 06:46:10;;;;;;;17.50;13.07;;;;;;;13.85;98.58;101587.50;4914027;29;20035;-84
2022/07/01 06:52:09;;;;;;;14.48;12.77;;;;;;;13.96;96.26;101573.44;4892792;29;20040;-78
2022/07/01 07:25:08;;;;;;;11.77;4.95;;;;;;;15.44;85.19;101618.19;4847077;29;20084;-86
2022/07/01 07:40:03;;;;;;;8.32;3.00;;;;;;;15.95;79.86;101607.72;4854388;29;20105;-82
2022/07/01 08:39:34;;;;;;;3.97;1.13;;;;;;;18.78;60.47;101650.44;4963400;24;20131;-84
2022/07/01 08:42:16;;;;;;;5.43;1.38;;;;;;;18.88;60.27;101660.25;4813067;29;20046;-83
2022/07/01 08:48:13;;;;;;;4.18;1.25;;;;;;;18.93;61.04;101673.97;4804902;29;20068;-81
2022/07/01 10:34:35;;;;;;;4.13;1.00;;;;;;;20.48;51.26;101745.84;5518127;24;20052;-87
2022/07/01 10:41:50;;;;;;;3.92;1.05;;;;;;;20.16;54.90;101738.38;4762248;30;20122;-87
2022/07/01 10:44:23;;;;;;;3.67;1.25;;;;;;;20.47;50.21;101739.69;4695784;30;20069;-87
2022/07/01 10:46:57;;;;;;;3.55;1.23;;;;;;;20.62;52.00;101737.25;4782284;29;20050;-84
2022/07/01 10:49:45;;;;;;;3.75;0.85;;;;;;;20.56;52.84;101736.06;4782495;29;20046;-84
2022/07/01 10:52:15;;;;;;;17.25;1.52;;;;;;;20.96;51.25;101727.44;4774780;29;20043;-84
2022/07/01 10:54:40;;;;;;;3.63;1.05;;;;;;;21.17;47.35;101729.69;4783080;29;20550;-86
2022/07/01 10:57:23;;;;;;;3.92;0.88;;;;;;;21.10;49.84;101734.00;4784160;29;20100;-85
2022/07/01 11:00:15;;;;;;;4.07;0.93;;;;;;;20.58;50.06;101734.06;4783858;30;20134;-85
2022/07/01 11:02:43;;;;;;;4.22;1.35;;;;;;;20.24;50.54;101735.78;4781568;29;20126;-85
2022/07/01 11:05:11;;;;;;;4.70;1.08;;;;;;;20.38;53.02;101735.19;4781663;29;20048;-86
2022/07/01 11:07:42;;;;;;;7.07;1.10;;;;;;;20.42;50.58;101738.47;4785170;29;20113;-85
2022/07/01 11:10:10;;;;;;;3.70;1.20;;;;;;;20.49;51.92;101727.00;4784576;29;20062;-85
2022/07/01 11:12:36;;;;;;;4.53;1.20;;;;;;;20.80;53.62;101710.44;4783366;30;20805;-85
2022/07/01 11:15:03;;;;;;;3.40;0.88;;;;;;;21.22;51.36;101708.66;4784685;29;20133;-86
2022/07/01 11:21:03;;;;;;;3.47;0.98;;;;;;;21.85;49.47;101702.78;4777614;29;20530;-79
2022/07/01 11:23:31;;;;;;;7.43;1.08;;;;;;;21.48;46.80;101705.06;4781343;29;20043;-84
2022/07/01 11:25:57;;;;;;;4.03;1.00;;;;;;;21.55;48.18;101690.84;4781269;29;20039;-83
2022/07/01 11:28:22;;;;;;;6.13;0.90;;;;;;;21.61;48.41;101704.59;4784191;29;20050;-84
2022/07/01 11:30:47;;;;;;;4.20;1.20;;;;;;;21.68;49.97;101701.09;4782617;29;21066;-82
2022/07/01 11:33:16;;;;;;;2.63;0.85;;;;;;;21.61;48.80;101702.75;4784640;29;20039;-82
2022/07/01 11:41:26;;;;;;;1.52;0.70;;;;;;;21.83;47.18;101703.97;4805549;29;20124;-82
2022/07/01 11:43:52;;;;;;;2.30;0.80;;;;;;;21.75;44.21;101701.28;4811456;29;20465;-82
2022/07/01 11:46:21;;;;;;;4.00;0.98;;;;;;;21.60;47.69;101693.03;4813200;29;20046;-81
2022/07/01 11:48:50;;;;;;;4.43;0.90;;;;;;;21.49;47.44;101688.00;4818548;29;20048;-81
2022/07/01 11:51:21;;;;;;;3.30;0.90;;;;;;;21.72;47.71;101691.75;4810291;29;20047;-82
2022/07/01 11:53:49;;;;;;;5.47;1.10;;;;;;;21.80;48.00;101701.63;4809207;29;20096;-81
2022/07/01 11:56:16;;;;;;;4.68;1.02;;;;;;;21.98;46.66;101698.78;4805882;29;20041;-81
2022/07/01 11:58:47;;;;;;;4.35;0.95;;;;;;;21.93;46.63;101706.47;4807641;29;20117;-83
2022/07/01 12:01:33;;;;;;;4.35;0.90;;;;;;;21.98;47.49;101706.81;4802755;29;20451;-82
2022/07/01 12:04:05;;;;;;;2.17;0.73;;;;;;;21.94;46.54;101700.94;4793040;29;20039;-83
2022/07/01 12:06:31;;;;;;;;;;;;;;;22.10;47.78;101708.22;4810261;29;20046;-83
2022/07/01 12:09:06;;;;;;;3.65;0.75;;;;;;;21.71;46.63;101706.13;4803448;29;20267;-82
2022/07/01 12:11:32;;;;;;;5.25;0.82;;;;;;;21.59;47.48;101713.63;4805090;29;20066;-83
2022/07/01 12:14:00;;;;;;;4.75;0.80;;;;;;;21.82;48.79;101708.47;4809271;29;20069;-83
2022/07/01 12:16:26;;;;;;;5.20;0.82;;;;;;;21.87;47.49;101705.31;4809145;29;20042;-82
2022/07/01 12:19:02;;;;;;;5.80;1.00;;;;;;;22.08;48.21;101712.91;4808359;29;20456;-81
2022/07/01 12:21:46;;;;;;;5.28;0.88;;;;;;;22.13;46.15;101707.88;4806602;29;20042;-82
2022/07/01 12:24:13;;;;;;;3.25;0.90;;;;;;;22.12;46.65;101716.91;4811355;29;20035;-82
2022/07/01 12:26:50;;;;;;;4.57;1.10;;;;;;;22.42;47.90;101710.03;4796629;29;20775;-82
2022/07/01 12:29:19;;;;;;;3.75;0.90;;;;;;;22.24;45.73;101706.69;4795121;29;20072;-82
2022/07/01 12:31:55;;;;;;;4.25;0.85;;;;;;;22.39;46.11;101711.19;4815792;29;20407;-82
2022/07/01 12:34:21;;;;;;;4.15;1.00;;;;;;;22.44;48.15;101698.13;4802755;29;20042;-82
2022/07/01 12:36:48;;;;;;;3.38;0.80;;;;;;;22.33;47.54;101709.19;4805332;29;20516;-82
2022/07/01 12:39:13;;;;;;;4.15;0.82;;;;;;;22.32;48.00;101698.63;4813974;29;20070;-82
2022/07/01 12:41:40;;;;;;;6.95;1.00;;;;;;;22.34;47.74;101705.50;4807226;29;20488;-82
2022/07/01 12:44:23;;;;;;;5.80;1.20;;;;;;;22.70;48.09;101707.78;4807056;29;20078;-83
2022/07/01 12:46:49;;;;;;;3.60;1.25;;;;;;;22.93;47.41;101692.66;4810691;29;20408;-83
2022/07/01 12:49:25;;;;;;;5.75;1.00;;;;;;;23.37;47.19;101697.47;4816869;29;20038;-81
2022/07/01 12:51:52;;;;;;;4.85;1.40;;;;;;;23.49;44.37;101698.75;4809107;29;20045;-82
2022/07/01 12:54:32;;;;;;;3.50;1.00;;;;;;;23.62;44.05;101701.75;4810929;29;20115;-82
2022/07/01 12:56:57;;;;;;;4.32;0.80;;;;;;;23.03;43.67;101701.34;4816549;29;20040;-84
2022/07/01 12:59:23;;;;;;;3.22;0.95;;;;;;;23.06;44.79;101700.16;4794755;29;20109;-83
2022/07/01 13:01:48;;;;;;;1.77;0.68;;;;;;;22.92;43.76;101695.50;4822940;29;20034;-83
2022/07/01 13:04:14;;;;;;;2.72;0.70;;;;;;;22.97;44.27;101696.66;4807844;29;20039;-83
2022/07/01 13:06:39;;;;;;;3.97;0.98;;;;;;;22.91;43.29;101699.22;4809609;29;20062;-84
2022/07/01 13:09:04;;;;;;;4.00;1.10;;;;;;;22.85;44.98;101700.75;4805790;29;20450;-83
2022/07/01 13:11:30;;;;;;;5.43;1.27;;;;;;;22.63;45.22;101701.44;4820015;29;20042;-83
2022/07/01 13:13:56;;;;;;;3.50;1.08;;;;;;;22.69;45.86;101695.38;4814854;29;20042;-82
2022/07/01 13:16:22;;;;;;;2.42;0.93;;;;;;;22.95;46.26;101692.47;4807403;29;20039;-83
2022/07/01 13:18:47;;;;;;;4.22;1.00;;;;;;;23.09;44.44;101697.94;4805588;29;20590;-83
2022/07/01 13:21:13;;;;;;;3.90;0.93;;;;;;;23.21;44.03;101689.50;4805448;29;20034;-83
2022/07/01 13:23:39;;;;;;;3.78;1.02;;;;;;;23.10;42.82;101702.31;4818642;29;20042;-83
2022/07/01 13:26:04;;;;;;;3.33;1.00;;;;;;;22.95;43.89;101696.00;4804745;29;20038;-83
2022/07/01 13:28:30;;;;;;;5.43;1.05;;;;;;;23.06;43.52;101703.66;4805785;29;20046;-84
2022/07/01 13:30:55;;;;;;;4.35;1.13;;;;;;;22.92;43.90;101709.78;4803969;29;20035;-84
2022/07/01 13:33:26;;;;;;;4.28;0.90;;;;;;;23.02;45.81;101710.41;4807764;29;20078;-83
2022/07/01 13:35:52;;;;;;;3.15;0.75;;;;;;;22.78;42.15;101697.84;4810999;29;20144;-84
2022/07/01 13:38:18;;;;;;;5.57;1.00;;;;;;;22.63;41.55;101717.53;4814887;29;20594;-84
2022/07/01 13:40:44;;;;;;;3.42;0.80;;;;;;;22.63;41.55;101706.78;4814566;29;20085;-84
2022/07/01 13:43:10;;;;;;;2.90;0.80;;;;;;;22.74;43.46;101714.47;4814812;29;20062;-84
2022/07/01 13:45:35;;;;;;;3.17;0.88;;;;;;;22.69;45.01;101714.16;4811641;29;20117;-84
2022/07/01 13:48:02;;;;;;;5.03;0.98;;;;;;;23.04;42.74;101721.81;4809557;29;20556;-85
2022/07/01 13:50:27;;;;;;;3.88;1.10;;;;;;;22.87;41.13;101716.66;4793672;29;20510;-84
2022/07/01 13:52:52;;;;;;;3.22;0.95;;;;;;;22.66;42.71;101722.56;4819784;29;20040;-82
2022/07/01 13:55:18;;;;;;;3.88;0.88;;;;;;;22.48;42.71;101725.44;4809170;29;20038;-84
2022/07/01 13:57:45;;;;;;;3.03;0.77;;;;;;;22.30;42.33;101730.97;4811140;29;20030;-83
2022/07/01 14:00:11;;;;;;;2.33;0.60;;;;;;;22.16;44.25;101732.50;4811266;29;20062;-83
2022/07/01 14:02:36;;;;;;;2.28;0.70;;;;;;;21.92;43.58;101735.13;4802404;29;20078;-83
2022/07/01 14:05:03;;;;;;;3.72;0.93;;;;;;;21.83;44.29;101730.75;4802626;29;20038;-82
2022/07/01 14:07:31;;;;;;;2.15;0.85;;;;;;;21.79;45.02;101740.13;4808370;29;20038;-82
2022/07/01 14:09:56;;;;;;;1.98;0.80;;;;;;;21.56;43.78;101739.91;4796637;29;20050;-82
2022/07/01 14:12:22;;;;;;;5.40;0.88;;;;;;;21.57;43.98;101736.22;4792102;29;20035;-82
2022/07/01 14:14:53;;;;;;;4.18;0.82;;;;;;;21.51;44.15;101743.06;4789004;29;20066;-82
2022/07/01 14:17:18;;;;;;;3.17;0.80;;;;;;;21.51;44.56;101742.22;4827195;29;20027;-83
2022/07/01 14:19:47;;;;;;;3.53;1.00;;;;;;;21.46;45.41;101742.72;4815839;29;20050;-84
2022/07/01 14:22:13;;;;;;;3.35;0.90;;;;;;;21.37;44.40;101750.91;4814215;29;20384;-85
2022/07/01 14:24:39;;;;;;;3.75;0.93;;;;;;;21.12;44.44;101750.75;4796370;29;20039;-84
2022/07/01 14:27:04;;;;;;;3.90;1.08;;;;;;;21.03;45.90;101756.22;4791689;29;20035;-84
2022/07/01 14:29:30;;;;;;;5.60;1.30;;;;;;;21.00;44.64;101760.06;4818549;29;20125;-85
2022/07/01 14:31:59;;;;;;;1.45;0.70;;;;;;;20.90;45.05;101760.19;4817941;29;20073;-84
2022/07/01 14:34:30;;;;;;;6.00;1.00;;;;;;;20.89;45.92;101758.50;4794197;29;20054;-84
2022/07/01 14:36:56;;;;;;;3.28;0.77;;;;;;;20.91;46.74;101759.19;4791450;29;20046;-84
2022/07/01 14:39:21;;;;;;;4.93;1.00;;;;;;;20.91;45.43;101755.66;4815012;29;20450;-84
2022/07/01 14:41:49;;;;;;;4.60;0.98;;;;;;;20.99;45.68;101763.72;4821327;29;20042;-85
2022/07/01 14:44:16;;;;;;;2.08;0.75;;;;;;;21.05;46.76;101767.59;4804971;29;20092;-85
2022/07/01 14:46:42;;;;;;;1.70;0.73;;;;;;;20.96;47.39;101766.72;4788661;29;20038;-82
2022/07/01 14:49:07;;;;;;;3.00;1.00;;;;;;;20.95;49.10;101789.13;4804961;29;20113;-82
2022/07/01 14:51:38;;;;;;;3.92;1.35;;;;;;;20.77;50.40;101785.66;4808331;29;20078;-84
2022/07/01 14:54:11;;;;;;;7.30;1.55;;;;;;;20.66;51.96;101805.47;4801225;29;20073;-84
2022/07/01 14:56:37;;;;;;;;;;;;;;;20.79;51.13;101805.06;4782300;29;20035;-85
2022/07/01 14:59:10;;;;;;;11.95;1.70;;;;;;;20.33;53.07;101809.69;4785366;29;19928;-83
2022/07/01 15:01:37;;;;;;;7.60;1.45;;;;;;;20.16;54.49;101818.56;4798505;29;20504;-84
2022/07/01 15:04:09;;;;;;;5.90;1.42;;;;;;;19.98;55.19;101826.53;4798603;29;20038;-85
2022/07/01 15:06:37;;;;;;;5.00;1.42;;;;;;;19.86;55.92;101812.56;4799206;29;20034;-85
2022/07/01 15:09:23;;;;;;;6.07;1.40;;;;;;;19.96;55.37;101817.81;4797947;29;20042;-84
2022/07/01 15:11:54;;;;;;;5.53;1.15;;;;;;;19.87;56.07;101824.91;4794464;29;20039;-85
2022/07/01 15:14:25;;;;;;;5.25;1.40;;;;;;;19.90;56.71;101813.94;4796337;29;20035;-85
2022/07/01 15:16:54;;;;;;;4.78;1.38;;;;;;;19.93;56.16;101821.66;4798606;29;20038;-85
2022/07/01 15:19:22;;;;;;;6.15;1.52;;;;;;;19.73;55.05;101822.78;4800194;29;20038;-83
2022/07/01 15:21:58;;;;;;;4.38;1.40;;;;;;;19.77;56.29;101834.84;4797885;29;20654;-85
2022/07/01 15:24:38;;;;;;;4.57;1.48;;;;;;;19.82;56.07;101832.53;4792507;29;20173;-85
2022/07/01 15:27:24;;;;;;;8.77;1.63;;;;;;;19.81;56.46;101828.19;4801992;29;20091;-85
2022/07/01 15:30:19;;;;;;;5.70;1.40;;;;;;;19.69;55.96;101842.75;4787367;29;20046;-84
2022/07/01 15:33:20;;;;;;;7.22;1.60;;;;;;;19.44;56.66;101836.22;4806500;29;20026;-85
2022/07/01 15:35:47;;;;;;;4.35;1.48;;;;;;;19.36;56.91;101836.13;4761109;29;20051;-85
2022/07/01 15:38:13;;;;;;;4.72;1.35;;;;;;;19.29;57.28;101835.03;4773748;29;20086;-85
2022/07/01 15:40:44;;;;;;;5.13;1.40;;;;;;;19.08;57.92;101835.22;4783912;29;20062;-85
2022/07/01 15:46:38;;;;;;;5.88;1.40;;;;;;;18.96;58.10;101828.38;4786673;29;20078;-85
2022/07/01 15:49:11;;;;;;;4.30;1.20;;;;;;;19.03;58.91;101840.16;4771911;30;20090;-85
2022/07/01 15:52:07;;;;;;;6.05;1.48;;;;;;;19.07;58.71;101830.88;4771455;29;20213;-85
2022/07/01 15:58:13;;;;;;;5.80;1.33;;;;;;;19.23;58.55;101828.44;4746144;30;20052;-85
2022/07/01 16:00:57;;;;;;;3.90;1.20;;;;;;;19.25;58.09;101834.47;4745677;30;20054;-85
2022/07/01 16:03:22;;;;;;;3.88;1.13;;;;;;;19.26;58.12;101840.66;4772162;29;20500;-85
2022/07/01 16:06:22;;;;;;;6.38;1.20;;;;;;;19.35;57.77;101843.28;4792447;29;20328;-85
2022/07/01 16:09:03;;;;;;;7.57;1.48;;;;;;;19.30;58.70;101840.22;4794945;29;20034;-84
2022/07/01 16:11:32;;;;;;;3.83;1.13;;;;;;;19.27;57.08;101843.19;4788973;29;20493;-85
2022/07/01 16:14:19;;;;;;;4.40;1.10;;;;;;;19.37;57.46;101838.63;4793450;29;20043;-85
2022/07/01 16:17:02;;;;;;;5.60;1.00;;;;;;;19.34;57.69;101827.41;4783095;29;20118;-84
2022/07/01 16:19:55;;;;;;;;;;;;;;;19.60;56.63;101839.13;4780483;29;20106;-84
2022/07/01 16:22:34;;;;;;;3.47;1.17;;;;;;;19.92;56.21;101841.34;4810902;29;19933;-83
2022/07/01 16:25:08;;;;;;;4.13;1.13;;;;;;;20.08;55.17;101832.69;4800636;29;20388;-84
2022/07/01 16:28:03;;;;;;;2.10;1.13;;;;;;;20.23;55.13;101836.50;4789998;29;20054;-83
2022/07/01 16:31:12;;;;;;;3.58;1.10;;;;;;;20.20;55.13;101835.97;4800703;29;20047;-84
2022/07/01 16:33:53;;;;;;;3.97;1.10;;;;;;;20.02;56.70;101842.13;4789919;29;20039;-84
2022/07/01 16:39:48;;;;;;;2.70;1.10;;;;;;;19.84;56.12;101841.25;4802376;29;20048;-84
2022/07/01 16:42:28;;;;;;;3.78;1.10;;;;;;;19.68;55.89;101839.25;4742536;30;20044;-84
2022/07/01 16:48:47;;;;;;;3.63;1.20;;;;;;;19.62;57.57;101858.53;4727958;30;20153;-84
2022/07/01 16:51:42;;;;;;;3.97;1.15;;;;;;;19.64;57.30;101851.22;4711488;30;20040;-84
2022/07/01 16:57:21;;;;;;;3.30;1.40;;;;;;;19.64;56.79;101847.69;4736414;30;20071;-84
2022/07/01 17:00:25;;;;;;;5.68;1.25;;;;;;;19.65;56.02;101842.22;4761216;30;20058;-84
2022/07/01 17:03:02;;;;;;;;;;;;;;;;;;;;;
2022/07/01 17:06:04;;;;;;;6.40;1.02;;;;;;;19.63;55.71;101854.03;4757743;30;20372;-84
2022/07/01 17:09:07;;;;;;;4.35;1.10;;;;;;;19.57;55.68;101860.78;4735616;30;20045;-84
2022/07/01 17:11:33;;;;;;;6.22;1.15;;;;;;;19.52;54.99;101848.81;4695484;30;20105;-84
2022/07/01 17:14:02;;;;;;;3.53;0.85;;;;;;;19.46;55.86;101860.09;4744069;30;20048;-84
2022/07/01 17:16:36;;;;;;;4.28;1.00;;;;;;;19.40;56.04;101854.34;4734871;30;20061;-84
2022/07/01 17:19:04;;;;;;;3.05;1.20;;;;;;;19.41;55.99;101855.19;4764133;30;20047;-84
2022/07/01 17:22:06;;;;;;;4.15;1.15;;;;;;;19.53;56.63;101859.38;4762073;30;20054;-84
2022/07/01 17:24:50;;;;;;;8.00;1.23;;;;;;;19.47;57.04;101859.09;4752197;30;20131;-84
2022/07/01 17:27:52;;;;;;;3.35;0.95;;;;;;;19.54;56.56;101854.88;4756368;30;20105;-84
2022/07/01 17:30:22;;;;;;;4.60;1.23;;;;;;;19.51;56.59;101858.66;4759613;29;20492;-84
2022/07/01 17:33:01;;;;;;;5.43;1.30;;;;;;;19.52;57.38;101862.16;4802470;29;20408;-83
2022/07/01 17:35:49;;;;;;;3.88;1.10;;;;;;;19.45;57.98;101856.59;4813630;29;20115;-84
2022/07/01 17:38:31;;;;;;;5.20;1.20;;;;;;;19.44;57.37;101864.75;4791751;29;20450;-84